createdAt,value
2023-05-15T00:02:14.408Z,4.13
2023-05-15T00:04:41.485Z,3.70
2023-05-15T00:07:08.705Z,4.70
2023-05-15T00:09:35.703Z,4.00
2023-05-15T00:12:03.437Z,4.00
2023-05-15T00:14:30.379Z,4.93
2023-05-15T00:16:57.513Z,4.30
2023-05-15T00:19:24.408Z,4.97
2023-05-15T00:21:51.314Z,4.20
2023-05-15T00:24:18.300Z,3.63
2023-05-15T00:26:45.331Z,4.27
2023-05-15T00:29:12.234Z,4.17
2023-05-15T00:31:39.218Z,4.67
2023-05-15T00:34:06.160Z,3.87
2023-05-15T00:36:33.144Z,3.73
2023-05-15T00:39:01.694Z,3.83
2023-05-15T00:41:32.526Z,4.87
2023-05-15T00:44:02.255Z,4.80
2023-05-15T00:46:32.529Z,4.33
2023-05-15T00:49:00.692Z,4.23
2023-05-15T00:51:27.850Z,3.53
2023-05-15T00:53:56.833Z,4.27
2023-05-15T00:56:25.550Z,4.23
2023-05-15T00:58:54.728Z,4.30
2023-05-15T01:01:21.946Z,4.50
2023-05-15T01:03:48.871Z,4.30
2023-05-15T01:06:16.246Z,3.90
2023-05-15T01:08:45.976Z,4.13
2023-05-15T01:11:15.002Z,3.90
2023-05-15T01:13:42.546Z,4.53
2023-05-15T01:16:10.650Z,4.77
2023-05-15T01:18:38.151Z,4.60
2023-05-15T01:21:20.605Z,4.27
2023-05-15T01:24:15.439Z,4.47
2023-05-15T01:26:48.598Z,4.80
2023-05-15T01:29:26.054Z,4.90
2023-05-15T01:32:00.845Z,5.03
2023-05-15T01:34:36.442Z,4.73
2023-05-15T01:37:04.600Z,4.53
2023-05-15T01:39:34.141Z,4.57
2023-05-15T01:42:03.238Z,4.53
2023-05-15T01:44:36.419Z,4.70
2023-05-15T01:47:10.398Z,4.53
2023-05-15T01:49:38.710Z,4.60
2023-05-15T01:52:25.609Z,3.90
2023-05-15T01:54:53.655Z,4.00
2023-05-15T01:57:21.933Z,4.43
2023-05-15T01:59:50.596Z,5.10
2023-05-15T02:02:18.503Z,4.30
2023-05-15T02:04:46.329Z,4.90
2023-05-15T02:07:14.786Z,4.70
2023-05-15T02:09:42.630Z,4.20
2023-05-15T02:12:10.864Z,4.47
2023-05-15T02:14:41.047Z,4.53
2023-05-15T02:17:07.998Z,6.00
2023-05-15T02:19:35.113Z,4.33
2023-05-15T02:22:02.296Z,4.70
2023-05-15T02:24:29.376Z,5.67
2023-05-15T02:27:20.650Z,5.60
2023-05-15T02:30:02.350Z,4.30
2023-05-15T02:32:49.897Z,4.30
2023-05-15T02:35:48.912Z,4.40
2023-05-15T02:38:29.190Z,4.30
2023-05-15T02:40:58.358Z,5.10
2023-05-15T02:43:26.366Z,5.33
2023-05-15T02:45:54.360Z,5.90
2023-05-15T02:48:22.010Z,5.07
2023-05-15T02:50:48.948Z,4.73
2023-05-15T02:53:16.254Z,4.90
2023-05-15T02:55:43.381Z,3.87
2023-05-15T02:58:10.873Z,4.50
2023-05-15T03:00:37.881Z,4.40
2023-05-15T03:03:05.143Z,4.73
2023-05-15T03:05:32.094Z,4.87
2023-05-15T03:08:00.972Z,4.77
2023-05-15T03:10:27.929Z,5.33
2023-05-15T03:12:58.482Z,5.23
2023-05-15T03:15:25.941Z,4.70
2023-05-15T03:17:53.225Z,5.33
2023-05-15T03:20:20.308Z,4.60
2023-05-15T03:22:47.225Z,4.90
2023-05-15T03:25:14.280Z,5.37
2023-05-15T03:27:41.278Z,4.40
2023-05-15T03:30:08.759Z,4.90
2023-05-15T03:32:35.723Z,4.70
2023-05-15T03:35:02.794Z,5.20
2023-05-15T03:37:29.718Z,4.47
2023-05-15T03:39:56.702Z,4.37
2023-05-15T03:42:24.954Z,4.93
2023-05-15T03:44:52.015Z,5.60
2023-05-15T03:47:19.224Z,5.27
2023-05-15T03:49:46.793Z,5.97
2023-05-15T03:52:14.005Z,5.07
2023-05-15T03:54:43.288Z,5.57
2023-05-15T03:57:10.562Z,5.63
2023-05-15T03:59:37.456Z,5.20
2023-05-15T04:02:05.644Z,4.93
2023-05-15T04:04:33.085Z,6.27
2023-05-15T04:07:00.698Z,5.30
2023-05-15T04:09:27.719Z,4.80
2023-05-15T04:11:54.619Z,5.50
2023-05-15T04:14:21.486Z,4.80
2023-05-15T04:16:48.495Z,5.17
2023-05-15T04:19:15.555Z,4.90
2023-05-15T04:21:42.577Z,5.27
2023-05-15T04:24:09.564Z,5.53
2023-05-15T04:26:36.805Z,5.07
2023-05-15T04:29:04.887Z,5.37
2023-05-15T04:31:32.407Z,5.33
2023-05-15T04:33:59.420Z,5.20
2023-05-15T04:36:26.324Z,4.73
2023-05-15T04:38:53.329Z,5.60
2023-05-15T04:41:20.926Z,7.20
2023-05-15T04:43:47.899Z,5.50
2023-05-15T04:46:14.940Z,5.40
2023-05-15T04:48:41.823Z,5.13
2023-05-15T04:51:08.783Z,4.77
2023-05-15T04:53:35.913Z,5.70
2023-05-15T04:56:02.810Z,5.20
2023-05-15T04:58:29.692Z,5.37
2023-05-15T05:00:56.763Z,5.43
2023-05-15T05:03:23.816Z,5.70
2023-05-15T05:05:50.791Z,6.07
2023-05-15T05:08:17.769Z,5.40
2023-05-15T05:10:44.703Z,5.43
2023-05-15T05:13:11.631Z,5.77
2023-05-15T05:15:38.669Z,6.23
2023-05-15T05:18:06.186Z,6.23
2023-05-15T05:20:33.122Z,5.53
2023-05-15T05:23:00.213Z,5.87
2023-05-15T05:25:27.232Z,5.93
2023-05-15T05:27:54.260Z,5.93
2023-05-15T05:30:22.642Z,5.57
2023-05-15T05:32:49.705Z,5.20
2023-05-15T05:35:19.820Z,5.60
2023-05-15T05:37:46.846Z,5.80
2023-05-15T05:40:14.109Z,7.37
2023-05-15T05:42:41.658Z,5.27
2023-05-15T05:45:08.980Z,5.73
2023-05-15T05:47:35.945Z,5.23
2023-05-15T05:50:03.259Z,5.87
2023-05-15T05:52:30.388Z,6.23
2023-05-15T05:54:57.332Z,4.57
2023-05-15T05:57:24.246Z,4.83
2023-05-15T05:59:51.212Z,4.87
2023-05-15T06:02:18.188Z,4.90
2023-05-15T06:04:46.097Z,5.57
2023-05-15T06:07:13.120Z,4.73
2023-05-15T06:09:40.085Z,3.83
2023-05-15T06:12:08.456Z,6.07
2023-05-15T06:14:36.144Z,5.70
2023-05-15T06:17:03.364Z,6.97
2023-05-15T06:19:30.480Z,6.37
2023-05-15T06:21:57.784Z,5.43
2023-05-15T06:24:24.808Z,6.00
2023-05-15T06:26:52.448Z,4.73
2023-05-15T06:29:19.624Z,5.17
2023-05-15T06:31:46.529Z,5.60
2023-05-15T06:34:13.536Z,5.10
2023-05-15T06:36:40.915Z,5.83
2023-05-15T06:39:10.778Z,6.13
2023-05-15T06:41:38.322Z,5.37
2023-05-15T06:44:05.616Z,6.17
2023-05-15T06:46:32.625Z,4.93
2023-05-15T06:48:59.586Z,5.40
2023-05-15T06:51:26.920Z,6.43
2023-05-15T06:53:54.115Z,4.77
2023-05-15T06:56:21.936Z,4.47
2023-05-15T06:58:48.920Z,3.77
2023-05-15T07:01:15.938Z,4.33
2023-05-15T07:03:43.143Z,3.87
2023-05-15T07:06:10.123Z,3.73
2023-05-15T07:08:37.026Z,4.63
2023-05-15T07:11:04.254Z,4.03
2023-05-15T07:13:31.565Z,5.20
2023-05-15T07:15:58.469Z,4.27
2023-05-15T07:18:25.514Z,5.00
2023-05-15T07:20:52.528Z,4.53
2023-05-15T07:23:19.385Z,4.73
2023-05-15T07:25:46.644Z,4.67
2023-05-15T07:28:13.583Z,4.77
2023-05-15T07:30:41.112Z,4.23
2023-05-15T07:33:08.006Z,4.17
2023-05-15T07:35:35.038Z,5.83
2023-05-15T07:38:02.047Z,5.00
2023-05-15T07:40:28.998Z,4.40
2023-05-15T07:42:56.187Z,4.10
2023-05-15T07:45:23.549Z,3.80
2023-05-15T07:47:51.039Z,5.17
2023-05-15T07:50:18.307Z,4.33
2023-05-15T07:52:45.222Z,4.67
2023-05-15T07:55:12.918Z,3.67
2023-05-15T07:57:40.265Z,4.43
2023-05-15T08:00:11.782Z,4.30
2023-05-15T08:02:39.474Z,3.97
2023-05-15T08:05:07.126Z,4.00
2023-05-15T08:07:34.920Z,4.37
2023-05-15T08:10:01.912Z,4.17
2023-05-15T08:12:28.908Z,5.07
2023-05-15T08:14:56.751Z,4.07
2023-05-15T08:17:24.651Z,4.10
2023-05-15T08:19:52.316Z,3.50
2023-05-15T08:22:19.375Z,2.70
2023-05-15T08:24:46.390Z,2.77
2023-05-15T08:27:13.764Z,3.23
2023-05-15T08:29:40.802Z,2.90
2023-05-15T08:32:09.132Z,3.00
2023-05-15T08:34:36.039Z,3.00
2023-05-15T08:37:02.972Z,2.67
2023-05-15T08:39:29.894Z,3.00
2023-05-15T08:42:10.837Z,2.90
2023-05-15T08:44:39.436Z,2.80
2023-05-15T08:47:07.236Z,2.80
2023-05-15T08:50:04.797Z,2.93
2023-05-15T08:52:33.626Z,3.07
2023-05-15T08:55:01.526Z,2.73
2023-05-15T08:57:28.974Z,3.07
2023-05-15T08:59:57.776Z,2.80
2023-05-15T09:02:26.200Z,3.10
2023-05-15T09:04:53.324Z,2.80
2023-05-15T09:07:20.996Z,4.40
2023-05-15T09:09:48.122Z,3.00
2023-05-15T09:12:16.252Z,2.70
2023-05-15T09:14:43.927Z,2.53
2023-05-15T09:17:13.928Z,3.27
2023-05-15T09:19:42.983Z,3.00
2023-05-15T09:22:24.416Z,3.00
2023-05-15T09:24:53.332Z,3.97
2023-05-15T09:27:20.807Z,4.90
2023-05-15T09:29:47.728Z,3.13
2023-05-15T09:32:15.855Z,3.45
2023-05-15T09:34:44.852Z,2.50
2023-05-15T09:37:28.000Z,3.10
2023-05-15T09:39:54.980Z,3.58
2023-05-15T09:42:24.667Z,3.20
2023-05-15T09:44:51.551Z,3.60
2023-05-15T09:47:19.607Z,3.13
2023-05-15T09:49:47.337Z,3.05
2023-05-15T09:52:16.274Z,3.78
2023-05-15T09:54:48.745Z,3.70
2023-05-15T09:57:21.437Z,3.53
2023-05-15T09:59:49.168Z,2.70
2023-05-15T10:02:32.653Z,2.78
2023-05-15T10:05:00.508Z,2.80
2023-05-15T10:07:29.295Z,2.70
2023-05-15T10:09:56.493Z,3.35
2023-05-15T10:12:24.878Z,3.40
2023-05-15T10:14:53.965Z,3.55
2023-05-15T10:17:21.489Z,3.42
2023-05-15T10:19:58.405Z,2.67
2023-05-15T10:22:30.841Z,3.80
2023-05-15T10:25:03.493Z,3.30
2023-05-15T10:27:36.054Z,3.47
2023-05-15T10:30:04.235Z,3.00
2023-05-15T10:32:33.002Z,3.03
2023-05-15T10:35:00.324Z,2.83
2023-05-15T10:37:29.037Z,3.13
2023-05-15T10:39:57.535Z,3.03
2023-05-15T10:42:27.276Z,2.70
2023-05-15T10:45:00.100Z,3.03
2023-05-15T10:47:27.622Z,3.10
2023-05-15T10:49:54.778Z,3.90
2023-05-15T10:52:21.978Z,3.30
2023-05-15T10:54:48.939Z,3.20
2023-05-15T10:57:16.077Z,2.63
2023-05-15T10:59:44.172Z,3.43
2023-05-15T11:02:21.485Z,3.27
2023-05-15T11:04:51.278Z,3.57
2023-05-15T11:07:19.072Z,3.30
2023-05-15T11:09:46.011Z,3.27
2023-05-15T11:12:13.935Z,2.90
2023-05-15T11:14:43.647Z,3.90
2023-05-15T11:17:12.952Z,3.60
2023-05-15T11:19:51.938Z,2.83
2023-05-15T11:22:26.093Z,3.07
2023-05-15T11:24:54.451Z,3.50
2023-05-15T11:27:33.301Z,3.20
2023-05-15T11:30:08.969Z,3.23
2023-05-15T11:32:47.891Z,3.23
2023-05-15T11:35:21.829Z,2.73
2023-05-15T11:37:50.142Z,2.83
2023-05-15T11:40:25.311Z,2.70
2023-05-15T11:43:04.020Z,2.87
2023-05-15T11:45:40.510Z,2.60
2023-05-15T11:48:12.452Z,3.00
2023-05-15T11:50:40.141Z,3.10
2023-05-15T11:53:08.652Z,3.63
2023-05-15T11:55:40.339Z,2.80
2023-05-15T11:58:13.640Z,2.57
2023-05-15T12:00:41.717Z,3.40
2023-05-15T12:03:20.391Z,2.93
2023-05-15T12:05:58.234Z,4.10
2023-05-15T12:08:32.158Z,3.00
2023-05-15T12:11:00.559Z,2.60
2023-05-15T12:13:27.909Z,2.77
2023-05-15T12:15:56.195Z,3.03
2023-05-15T12:18:24.001Z,4.00
2023-05-15T12:20:54.948Z,3.50
2023-05-15T12:23:24.741Z,3.47
2023-05-15T12:25:57.776Z,2.80
2023-05-15T12:28:25.539Z,2.70
2023-05-15T12:30:53.145Z,3.10
2023-05-15T12:33:20.223Z,3.13
2023-05-15T12:36:06.064Z,2.97
2023-05-15T12:38:35.035Z,3.73
2023-05-15T12:41:02.285Z,4.73
2023-05-15T12:43:31.744Z,3.30
2023-05-15T12:45:59.133Z,6.50
2023-05-15T12:48:32.891Z,3.30
2023-05-15T12:51:09.656Z,3.13
2023-05-15T12:53:39.641Z,3.37
2023-05-15T12:56:07.776Z,3.60
2023-05-15T12:58:35.699Z,3.73
2023-05-15T13:01:03.951Z,3.30
2023-05-15T13:03:32.020Z,3.40
2023-05-15T13:05:59.185Z,3.00
2023-05-15T13:08:26.155Z,3.40
2023-05-15T13:11:00.051Z,3.10
2023-05-15T13:13:44.264Z,4.43
2023-05-15T13:16:21.448Z,4.07
2023-05-15T13:18:48.762Z,3.93
2023-05-15T13:21:15.798Z,3.43
2023-05-15T13:23:42.855Z,2.63
2023-05-15T13:26:09.963Z,4.20
2023-05-15T13:28:36.901Z,3.57
2023-05-15T13:31:03.933Z,3.60
2023-05-15T13:33:31.990Z,4.30
2023-05-15T13:35:59.012Z,3.57
2023-05-15T13:38:25.893Z,3.30
2023-05-15T13:40:52.839Z,3.10
2023-05-15T13:43:20.191Z,4.10
2023-05-15T13:45:47.077Z,3.17
2023-05-15T13:48:14.026Z,3.30
2023-05-15T13:50:41.140Z,3.33
2023-05-15T13:53:08.042Z,5.03
2023-05-15T13:55:35.112Z,3.37
2023-05-15T13:58:02.089Z,3.63
2023-05-15T14:00:28.976Z,3.47
2023-05-15T14:02:55.913Z,3.07
2023-05-15T14:05:22.882Z,3.27
2023-05-15T14:07:49.766Z,2.97
2023-05-15T14:10:16.658Z,3.60
2023-05-15T14:12:43.828Z,2.97
2023-05-15T14:15:11.989Z,3.40
2023-05-15T14:17:39.872Z,3.10
2023-05-15T14:20:07.559Z,2.83
2023-05-15T14:22:34.485Z,3.27
2023-05-15T14:25:02.120Z,3.53
2023-05-15T14:27:29.323Z,3.17
2023-05-15T14:29:59.191Z,4.73
2023-05-15T14:32:26.356Z,3.90
2023-05-15T14:34:53.333Z,3.37
2023-05-15T14:37:20.326Z,4.40
2023-05-15T14:39:47.308Z,3.40
2023-05-15T14:42:14.237Z,3.33
2023-05-15T14:44:41.156Z,2.63
2023-05-15T14:47:09.986Z,3.13
2023-05-15T14:49:37.855Z,3.33
2023-05-15T14:52:07.595Z,3.47
2023-05-15T14:54:35.770Z,3.20
2023-05-15T14:57:02.712Z,3.70
2023-05-15T14:59:29.671Z,3.63
2023-05-15T15:01:56.697Z,3.60
2023-05-15T15:04:23.736Z,3.50
2023-05-15T15:06:50.724Z,3.67
2023-05-15T15:09:19.573Z,3.00
2023-05-15T15:11:48.424Z,3.60
2023-05-15T15:14:15.328Z,3.37
2023-05-15T15:16:44.191Z,2.90
2023-05-15T15:19:11.432Z,4.17
2023-05-15T15:21:38.425Z,3.63
2023-05-15T15:24:05.627Z,2.97
2023-05-15T15:26:32.708Z,3.23
2023-05-15T15:29:01.067Z,2.97
2023-05-15T15:31:31.976Z,2.90
2023-05-15T15:33:59.457Z,3.17
2023-05-15T15:36:26.457Z,3.00
2023-05-15T15:38:53.584Z,2.57
2023-05-15T15:41:23.700Z,3.17
2023-05-15T15:43:50.711Z,3.40
2023-05-15T15:46:17.690Z,3.40
2023-05-15T15:48:45.075Z,3.57
2023-05-15T15:51:12.038Z,3.30
2023-05-15T15:53:39.236Z,4.87
2023-05-15T15:56:07.502Z,3.17
2023-05-15T15:58:34.475Z,3.13
2023-05-15T16:01:02.863Z,3.30
2023-05-15T16:03:31.566Z,3.20
2023-05-15T16:06:00.084Z,3.73
2023-05-15T16:08:27.175Z,3.43
2023-05-15T16:10:55.071Z,3.50
2023-05-15T16:13:22.005Z,3.00
2023-05-15T16:15:48.962Z,3.53
2023-05-15T16:18:16.175Z,3.23
2023-05-15T16:20:43.034Z,3.77
2023-05-15T16:23:11.749Z,5.03
2023-05-15T16:25:38.764Z,3.03
2023-05-15T16:28:05.894Z,3.67
2023-05-15T16:30:47.380Z,4.37
2023-05-15T16:33:17.145Z,4.60
2023-05-15T16:35:44.195Z,4.00
2023-05-15T16:38:11.241Z,3.27
2023-05-15T16:40:38.397Z,3.97
2023-05-15T16:43:05.869Z,3.40
2023-05-15T16:45:32.858Z,4.17
2023-05-15T16:47:59.939Z,3.90
2023-05-15T16:50:27.208Z,3.50
2023-05-15T16:52:54.234Z,4.27
2023-05-15T16:55:21.577Z,3.40
2023-05-15T16:57:48.531Z,3.90
2023-05-15T17:00:16.363Z,3.50
2023-05-15T17:02:44.068Z,3.10
2023-05-15T17:05:11.915Z,3.47
2023-05-15T17:07:39.082Z,3.47
2023-05-15T17:10:07.149Z,3.87
2023-05-15T17:12:34.958Z,3.57
2023-05-15T17:15:02.496Z,4.20
2023-05-15T17:17:29.655Z,3.63
2023-05-15T17:19:57.211Z,4.03
2023-05-15T17:22:24.635Z,4.07
2023-05-15T17:24:52.268Z,4.33
2023-05-15T17:27:19.893Z,4.00
2023-05-15T17:29:47.121Z,3.60
2023-05-15T17:32:14.409Z,3.83
2023-05-15T17:34:41.458Z,3.90
2023-05-15T17:37:09.201Z,3.67
2023-05-15T17:39:36.278Z,4.07
2023-05-15T17:42:03.798Z,3.73
2023-05-15T17:44:31.116Z,4.07
2023-05-15T17:46:58.873Z,4.77
2023-05-15T17:49:26.406Z,4.00
2023-05-15T17:51:54.152Z,3.43
2023-05-15T17:54:21.122Z,3.63
2023-05-15T17:56:48.495Z,4.80
2023-05-15T17:59:15.585Z,3.57
2023-05-15T18:01:42.741Z,3.63
2023-05-15T18:04:10.156Z,4.00
2023-05-15T18:06:37.189Z,3.87
2023-05-15T18:09:05.330Z,4.20
2023-05-15T18:11:32.501Z,4.60
2023-05-15T18:13:59.693Z,3.73
2023-05-15T18:16:26.960Z,5.07
2023-05-15T18:18:54.209Z,4.40
2023-05-15T18:21:21.264Z,4.00
2023-05-15T18:23:48.493Z,3.73
2023-05-15T18:26:15.460Z,3.80
2023-05-15T18:28:42.352Z,3.70
2023-05-15T18:31:09.553Z,3.57
2023-05-15T18:33:36.774Z,4.13
2023-05-15T18:36:06.694Z,3.50
2023-05-15T18:38:34.656Z,3.50
2023-05-15T18:41:01.531Z,4.60
2023-05-15T18:43:28.701Z,4.03
2023-05-15T18:45:55.680Z,4.43
2023-05-15T18:48:22.566Z,3.50
2023-05-15T18:50:49.571Z,3.20
2023-05-15T18:53:16.560Z,4.47
2023-05-15T18:55:43.419Z,4.17
2023-05-15T18:58:10.387Z,4.03
2023-05-15T19:00:39.103Z,4.27
2023-05-15T19:03:07.031Z,4.53
2023-05-15T19:05:34.153Z,4.20
2023-05-15T19:08:01.522Z,4.20
2023-05-15T19:10:29.651Z,4.00
2023-05-15T19:12:57.577Z,3.93
2023-05-15T19:15:25.601Z,4.27
2023-05-15T19:17:52.847Z,3.90
2023-05-15T19:20:20.634Z,4.50
2023-05-15T19:22:47.634Z,4.13
2023-05-15T19:25:14.759Z,4.20
2023-05-15T19:27:41.760Z,4.20
2023-05-15T19:30:10.100Z,4.77
2023-05-15T19:32:37.501Z,4.40
2023-05-15T19:35:05.355Z,4.40
2023-05-15T19:37:32.285Z,4.20
2023-05-15T19:39:59.250Z,4.77
2023-05-15T19:42:26.508Z,6.07
2023-05-15T19:44:53.473Z,5.13
2023-05-15T19:47:20.740Z,5.20
2023-05-15T19:49:47.651Z,4.47
2023-05-15T19:52:16.479Z,4.60
2023-05-15T19:54:44.300Z,5.07
2023-05-15T19:57:11.344Z,4.40
2023-05-15T19:59:38.622Z,5.03
2023-05-15T20:02:09.220Z,4.13
2023-05-15T20:04:37.001Z,4.63
2023-05-15T20:07:04.454Z,4.30
2023-05-15T20:09:31.579Z,3.93
2023-05-15T20:11:58.654Z,4.13
2023-05-15T20:14:25.834Z,4.17
2023-05-15T20:16:52.803Z,4.03
2023-05-15T20:19:22.310Z,4.33
2023-05-15T20:21:49.963Z,5.17
2023-05-15T20:24:17.898Z,4.57
2023-05-15T20:26:45.312Z,4.53
2023-05-15T20:29:12.303Z,4.40
2023-05-15T20:31:40.438Z,5.03
2023-05-15T20:34:08.602Z,5.90
2023-05-15T20:36:38.790Z,5.20
2023-05-15T20:39:07.364Z,5.27
2023-05-15T20:41:34.919Z,4.33
2023-05-15T20:44:01.983Z,4.40
2023-05-15T20:46:30.135Z,4.60
2023-05-15T20:48:57.974Z,5.00
2023-05-15T20:51:25.127Z,4.93
2023-05-15T20:53:51.988Z,5.10
2023-05-15T20:56:19.017Z,5.20
2023-05-15T20:58:46.095Z,5.37
2023-05-15T21:01:13.176Z,4.70
2023-05-15T21:03:40.213Z,5.10
2023-05-15T21:06:07.307Z,5.43
2023-05-15T21:08:34.203Z,5.37
2023-05-15T21:11:01.116Z,5.17
2023-05-15T21:13:28.348Z,4.93
2023-05-15T21:15:55.283Z,5.43
2023-05-15T21:18:22.381Z,5.43
2023-05-15T21:20:49.281Z,5.30
2023-05-15T21:23:16.562Z,4.47
2023-05-15T21:25:43.485Z,6.00
2023-05-15T21:28:10.434Z,5.40
2023-05-15T21:30:37.296Z,5.53
2023-05-15T21:33:04.313Z,5.80
2023-05-15T21:35:31.912Z,6.00
2023-05-15T21:37:58.968Z,5.00
2023-05-15T21:40:26.203Z,5.87
2023-05-15T21:42:53.608Z,5.30
2023-05-15T21:45:20.724Z,5.03
2023-05-15T21:47:47.677Z,5.20
2023-05-15T21:50:14.697Z,5.47
2023-05-15T21:52:41.992Z,5.57
2023-05-15T21:55:09.232Z,5.33
2023-05-15T21:57:36.269Z,4.87
2023-05-15T22:00:04.554Z,5.13
2023-05-15T22:02:31.885Z,5.23
2023-05-15T22:04:58.840Z,4.93
2023-05-15T22:07:25.904Z,5.33
2023-05-15T22:09:53.231Z,4.97
2023-05-15T22:12:42.183Z,5.23
2023-05-15T22:15:09.813Z,5.00
2023-05-15T22:17:37.127Z,5.10
2023-05-15T22:20:08.005Z,5.37
2023-05-15T22:22:36.144Z,5.33
2023-05-15T22:25:03.480Z,4.90
2023-05-15T22:27:30.506Z,4.67
2023-05-15T22:29:57.560Z,4.93
2023-05-15T22:32:24.828Z,4.50
2023-05-15T22:34:52.067Z,4.80
2023-05-15T22:37:19.105Z,5.30
2023-05-15T22:39:46.250Z,5.87
2023-05-15T22:42:13.284Z,5.63
2023-05-15T22:44:40.508Z,5.70
2023-05-15T22:47:07.833Z,4.97
2023-05-15T22:49:34.786Z,5.50
2023-05-15T22:52:01.729Z,5.10
2023-05-15T22:55:15.243Z,5.17
2023-05-15T22:57:43.358Z,5.33
2023-05-15T23:00:10.801Z,4.90
2023-05-15T23:02:38.505Z,5.50
2023-05-15T23:05:06.188Z,4.97
2023-05-15T23:07:35.675Z,5.33
2023-05-15T23:10:02.649Z,5.40
2023-05-15T23:12:29.756Z,5.17
2023-05-15T23:14:56.651Z,5.53
2023-05-15T23:17:25.091Z,5.67
2023-05-15T23:19:53.363Z,5.43
2023-05-15T23:22:20.248Z,5.73
2023-05-15T23:24:47.172Z,5.33
2023-05-15T23:27:14.063Z,5.20
2023-05-15T23:29:41.000Z,5.60
2023-05-15T23:32:08.102Z,5.10
2023-05-15T23:34:35.105Z,5.70
2023-05-15T23:37:01.973Z,5.60
2023-05-15T23:39:28.867Z,5.00
2023-05-15T23:41:57.039Z,4.93
2023-05-15T23:44:24.206Z,5.70
2023-05-15T23:46:51.193Z,5.43
2023-05-15T23:49:18.120Z,5.10
2023-05-15T23:51:45.086Z,5.83
2023-05-15T23:54:12.215Z,6.03
2023-05-15T23:56:39.365Z,5.77
2023-05-15T23:59:06.282Z,5.57
